Griesau Airport


Codes: EDPG/
Name: Griesau Airport
City: Pfatter
Country: Germany
Elevation: 1060 ft.

Photos at Griesau Airport


   Photos courtesy of SpottingLog. You can add your own sightings and photos by signing up for a free trial today.



No photos found.

Weather at Griesau Airport


Time (UTC)DescriptionTempratureWindCloud coverageVisibilityPressureHumidity
23-May-2024 21:00Moderate Rain14°C7 mph, SW86%7978m1015hPa89%
24-May-2024 00:00Moderate Rain13°C4 mph, N93%0m1016hPa94%
24-May-2024 03:00Moderate Rain12°C2 mph, S100%10000m1017hPa98%
24-May-2024 06:00Light Rain12°C4 mph, S100%10000m1018hPa95%
24-May-2024 09:00Light Rain14°C4 mph, S100%10000m1018hPa82%
24-May-2024 12:00Overcast Clouds16°C2 mph, SW99%10000m1018hPa73%
24-May-2024 15:00Broken Clouds19°C4 mph, W57%10000m1016hPa64%
24-May-2024 18:00Scattered Clouds16°C2 mph, NW41%10000m1016hPa79%
24-May-2024 21:00Clear Sky12°C4 mph, NW3%10000m1017hPa90%
25-May-2024 00:00Scattered Clouds11°C4 mph, N30%10000m1018hPa93%
25-May-2024 03:00Broken Clouds10°C2 mph, NW81%10000m1018hPa94%
25-May-2024 06:00Overcast Clouds14°C4 mph, NW86%10000m1018hPa81%
25-May-2024 09:00Overcast Clouds19°C2 mph, NW97%10000m1018hPa58%
25-May-2024 12:00Light Rain18°C4 mph, SE98%10000m1017hPa67%
25-May-2024 15:00Light Rain20°C2 mph, W90%10000m1016hPa63%
25-May-2024 18:00Light Rain16°C4 mph, NW53%10000m1016hPa84%
25-May-2024 21:00Scattered Clouds13°C2 mph, NW29%10000m1018hPa91%
26-May-2024 00:00Few Clouds12°C2 mph, NW24%10000m1018hPa92%
26-May-2024 03:00Few Clouds11°C2 mph, SW21%10000m1019hPa94%
26-May-2024 06:00Few Clouds14°C2 mph, S20%10000m1020hPa87%
26-May-2024 09:00Scattered Clouds19°C4 mph, S27%10000m1020hPa69%
26-May-2024 12:00Scattered Clouds22°C4 mph, S26%10000m1019hPa56%
26-May-2024 15:00Broken Clouds23°C2 mph, SW77%10000m1018hPa53%
26-May-2024 18:00Light Rain19°C2 mph, W85%10000m1019hPa76%
26-May-2024 21:00Overcast Clouds15°C2 mph, NW100%10000m1020hPa85%
27-May-2024 00:00Overcast Clouds14°C2 mph, SE99%10000m1020hPa88%
27-May-2024 03:00Broken Clouds13°C2 mph, SE76%10000m1020hPa92%
27-May-2024 06:00Broken Clouds16°C2 mph, SE84%10000m1019hPa84%
27-May-2024 09:00Overcast Clouds20°C4 mph, SE100%10000m1019hPa70%
27-May-2024 12:00Overcast Clouds23°C4 mph, SE100%10000m1016hPa54%
27-May-2024 15:00Overcast Clouds24°C2 mph, E100%10000m1014hPa52%
27-May-2024 18:00Light Rain17°C9 mph, NW96%10000m1015hPa89%
27-May-2024 21:00Light Rain15°C4 mph, W100%10000m1016hPa98%
28-May-2024 00:00Light Rain15°C4 mph, W100%8911m1016hPa98%
28-May-2024 03:00Moderate Rain13°C16 mph, NW100%9936m1017hPa96%
28-May-2024 06:00Light Rain13°C9 mph, W100%10000m1019hPa93%
28-May-2024 09:00Light Rain16°C11 mph, W98%10000m1020hPa64%
28-May-2024 12:00Light Rain18°C11 mph, W99%10000m1019hPa56%
28-May-2024 15:00Light Rain18°C9 mph, SW72%10000m1018hPa62%
28-May-2024 18:00Light Rain15°C4 mph, W56%10000m1018hPa78%